createdAt,value
2023-04-18T00:00:02.370Z,9.88
2023-04-18T00:01:02.500Z,9.85
2023-04-18T00:02:02.453Z,9.83
2023-04-18T00:03:04.410Z,9.81
2023-04-18T00:04:02.611Z,9.81
2023-04-18T00:05:02.463Z,9.83
2023-04-18T00:06:02.300Z,9.81
2023-04-18T00:07:02.314Z,9.81
2023-04-18T00:08:02.286Z,9.80
2023-04-18T00:09:02.330Z,9.77
2023-04-18T00:10:02.259Z,9.77
2023-04-18T00:11:02.232Z,9.75
2023-04-18T00:12:02.232Z,9.74
2023-04-18T00:13:02.171Z,9.71
2023-04-18T00:14:02.228Z,9.70
2023-04-18T00:15:02.201Z,9.67
2023-04-18T00:16:02.166Z,9.67
2023-04-18T00:17:02.251Z,9.68
2023-04-18T00:18:02.186Z,9.70
2023-04-18T00:19:02.155Z,9.71
2023-04-18T00:20:02.073Z,9.74
2023-04-18T00:21:02.072Z,9.74
2023-04-18T00:22:02.092Z,9.77
2023-04-18T00:23:02.095Z,9.74
2023-04-18T00:24:02.056Z,9.75
2023-04-18T00:25:02.170Z,9.77
2023-04-18T00:26:02.025Z,9.75
2023-04-18T00:27:01.988Z,9.74
2023-04-18T00:28:02.063Z,9.73
2023-04-18T00:29:01.970Z,9.71
2023-04-18T00:30:01.981Z,9.70
2023-04-18T00:31:02.023Z,9.67
2023-04-18T00:32:01.951Z,9.65
2023-04-18T00:33:02.006Z,9.63
2023-04-18T00:34:01.935Z,9.63
2023-04-18T00:35:01.954Z,9.62
2023-04-18T00:36:01.931Z,9.63
2023-04-18T00:37:01.903Z,9.62
2023-04-18T00:38:01.857Z,9.62
2023-04-18T00:39:01.864Z,9.62
2023-04-18T00:40:01.869Z,9.60
2023-04-18T00:41:01.855Z,9.60
2023-04-18T00:42:01.840Z,9.59
2023-04-18T00:43:01.805Z,9.56
2023-04-18T00:44:01.770Z,9.55
2023-04-18T00:45:01.875Z,9.55
2023-04-18T00:46:01.878Z,9.55
2023-04-18T00:47:01.756Z,9.52
2023-04-18T00:48:01.824Z,9.52
2023-04-18T00:49:01.764Z,9.50
2023-04-18T00:50:01.723Z,9.45
2023-04-18T00:51:01.709Z,9.42
2023-04-18T00:52:01.694Z,9.41
2023-04-18T00:53:01.652Z,9.37
2023-04-18T00:54:01.655Z,9.34
2023-04-18T00:55:01.631Z,9.31
2023-04-18T00:56:01.613Z,9.30
2023-04-18T00:57:01.637Z,9.26
2023-04-18T00:58:01.615Z,9.23
2023-04-18T00:59:01.606Z,9.22
2023-04-18T01:00:01.648Z,9.17
2023-04-18T01:01:01.587Z,9.19
2023-04-18T01:02:01.724Z,9.20
2023-04-18T01:03:02.771Z,9.17
2023-04-18T01:04:01.653Z,9.19
2023-04-18T01:05:01.535Z,9.19
2023-04-18T01:06:01.511Z,9.16
2023-04-18T01:07:01.593Z,9.17
2023-04-18T01:08:01.544Z,9.16
2023-04-18T01:09:01.472Z,9.13
2023-04-18T01:10:01.512Z,9.13
2023-04-18T01:11:01.440Z,9.10
2023-04-18T01:12:01.473Z,9.06
2023-04-18T01:13:01.413Z,9.04
2023-04-18T01:14:01.459Z,9.01
2023-04-18T01:15:01.386Z,9.03
2023-04-18T01:16:01.391Z,9.03
2023-04-18T01:17:01.378Z,9.03
2023-04-18T01:18:01.367Z,9.03
2023-04-18T01:19:01.310Z,9.06
2023-04-18T01:20:01.326Z,9.06
2023-04-18T01:21:01.296Z,9.10
2023-04-18T01:22:01.298Z,9.08
2023-04-18T01:23:01.289Z,9.04
2023-04-18T01:24:01.263Z,9.01
2023-04-18T01:25:01.252Z,8.97
2023-04-18T01:26:01.272Z,8.96
2023-04-18T01:27:01.303Z,8.94
2023-04-18T01:28:01.197Z,8.93
2023-04-18T01:29:01.225Z,8.94
2023-04-18T01:30:01.258Z,8.94
2023-04-18T01:31:01.173Z,8.94
2023-04-18T01:32:01.217Z,8.93
2023-04-18T01:33:01.250Z,8.93
2023-04-18T01:34:01.119Z,8.93
2023-04-18T01:35:01.111Z,8.94
2023-04-18T01:36:01.127Z,8.93
2023-04-18T01:37:01.134Z,8.89
2023-04-18T01:38:01.142Z,8.88
2023-04-18T01:39:01.050Z,8.85
2023-04-18T01:40:01.071Z,8.86
2023-04-18T01:41:01.061Z,8.82
2023-04-18T01:42:01.063Z,8.82
2023-04-18T01:43:01.023Z,8.80
2023-04-18T01:44:00.994Z,8.79
2023-04-18T01:45:00.994Z,8.76
2023-04-18T01:46:00.991Z,8.75
2023-04-18T01:47:01.082Z,8.75
2023-04-18T01:48:00.988Z,8.75
2023-04-18T01:49:00.935Z,8.75
2023-04-18T01:50:00.934Z,8.73
2023-04-18T01:51:00.914Z,8.71
2023-04-18T01:52:00.936Z,8.68
2023-04-18T01:53:00.912Z,8.64
2023-04-18T01:54:00.870Z,8.60
2023-04-18T01:55:00.851Z,8.58
2023-04-18T01:56:00.849Z,8.55
2023-04-18T01:57:00.868Z,8.50
2023-04-18T01:58:00.819Z,8.49
2023-04-18T01:59:00.799Z,8.46
2023-04-18T02:00:01.832Z,8.43
2023-04-18T02:01:00.906Z,8.42
2023-04-18T02:02:00.862Z,8.43
2023-04-18T02:03:00.875Z,8.42
2023-04-18T02:04:00.794Z,8.45
2023-04-18T02:05:00.722Z,8.45
2023-04-18T02:06:00.705Z,8.46
2023-04-18T02:07:00.756Z,8.45
2023-04-18T02:08:00.686Z,8.47
2023-04-18T02:09:00.694Z,8.46
2023-04-18T02:10:00.702Z,8.47
2023-04-18T02:11:00.632Z,8.45
2023-04-18T02:12:00.666Z,8.43
2023-04-18T02:13:00.641Z,8.42
2023-04-18T02:14:00.638Z,8.40
2023-04-18T02:15:00.636Z,8.37
2023-04-18T02:16:00.640Z,8.37
2023-04-18T02:17:00.615Z,8.37
2023-04-18T02:18:00.645Z,8.37
2023-04-18T02:19:00.543Z,8.40
2023-04-18T02:20:00.575Z,8.39
2023-04-18T02:21:00.509Z,8.37
2023-04-18T02:22:00.544Z,8.37
2023-04-18T02:23:00.500Z,8.34
2023-04-18T02:24:00.500Z,8.31
2023-04-18T02:25:00.480Z,8.29
2023-04-18T02:26:00.498Z,8.27
2023-04-18T02:27:00.450Z,8.21
2023-04-18T02:28:00.468Z,8.20
2023-04-18T02:29:00.411Z,8.14
2023-04-18T02:30:00.406Z,8.14
2023-04-18T02:31:00.384Z,8.14
2023-04-18T02:32:00.428Z,8.12
2023-04-18T02:33:00.418Z,8.12
2023-04-18T02:34:00.357Z,8.09
2023-04-18T02:35:00.375Z,8.07
2023-04-18T02:36:00.338Z,8.10
2023-04-18T02:37:00.347Z,8.10
2023-04-18T02:38:00.359Z,8.09
2023-04-18T02:39:00.281Z,8.09
2023-04-18T02:40:00.328Z,8.10
2023-04-18T02:41:00.300Z,8.09
2023-04-18T02:42:00.290Z,8.09
2023-04-18T02:43:00.256Z,8.07
2023-04-18T02:44:00.233Z,8.06
2023-04-18T02:45:00.218Z,8.03
2023-04-18T02:46:00.272Z,8.00
2023-04-18T02:47:00.183Z,7.96
2023-04-18T02:48:00.280Z,7.95
2023-04-18T02:49:00.141Z,7.92
2023-04-18T02:50:00.213Z,7.89
2023-04-18T02:51:00.119Z,7.86
2023-04-18T02:52:00.132Z,7.84
2023-04-18T02:53:00.159Z,7.79
2023-04-18T02:54:00.135Z,7.77
2023-04-18T02:55:00.074Z,7.73
2023-04-18T02:56:00.065Z,7.71
2023-04-18T02:57:00.052Z,7.69
2023-04-18T02:58:00.032Z,7.67
2023-04-18T02:59:00.033Z,7.67
2023-04-18T03:00:00.056Z,7.67
2023-04-18T03:00:59.998Z,7.63
2023-04-18T03:01:59.975Z,7.62
2023-04-18T03:03:00.118Z,7.60
2023-04-18T03:03:59.952Z,7.58
2023-04-18T03:05:00.296Z,7.55
2023-04-18T03:05:59.945Z,7.55
2023-04-18T03:06:59.915Z,7.52
2023-04-18T03:07:59.993Z,7.52
2023-04-18T03:08:59.863Z,7.51
2023-04-18T03:09:59.902Z,7.50
2023-04-18T03:10:59.851Z,7.48
2023-04-18T03:11:59.859Z,7.47
2023-04-18T03:12:59.822Z,7.44
2023-04-18T03:13:59.865Z,7.42
2023-04-18T03:14:59.824Z,7.37
2023-04-18T03:15:59.861Z,7.36
2023-04-18T03:16:59.805Z,7.34
2023-04-18T03:17:59.854Z,7.32
2023-04-18T03:18:59.761Z,7.32
2023-04-18T03:19:59.793Z,7.29
2023-04-18T03:20:59.718Z,7.29
2023-04-18T03:21:59.769Z,7.30
2023-04-18T03:22:59.695Z,7.30
2023-04-18T03:23:59.674Z,7.29
2023-04-18T03:24:59.711Z,7.29
2023-04-18T03:25:59.699Z,7.29
2023-04-18T03:26:59.657Z,7.27
2023-04-18T03:27:59.703Z,7.27
2023-04-18T03:28:59.670Z,7.24
2023-04-18T03:29:59.611Z,7.26
2023-04-18T03:30:59.640Z,7.26
2023-04-18T03:31:59.622Z,7.26
2023-04-18T03:32:59.662Z,7.24
2023-04-18T03:33:59.593Z,7.29
2023-04-18T03:34:59.551Z,7.32
2023-04-18T03:35:59.537Z,7.33
2023-04-18T03:36:59.506Z,7.36
2023-04-18T03:37:59.543Z,7.41
2023-04-18T03:38:59.516Z,7.42
2023-04-18T03:39:59.468Z,7.47
2023-04-18T03:40:59.491Z,7.47
2023-04-18T03:41:59.473Z,7.45
2023-04-18T03:42:59.416Z,7.45
2023-04-18T03:43:59.477Z,7.47
2023-04-18T03:44:59.429Z,7.48
2023-04-18T03:45:59.525Z,7.50
2023-04-18T03:46:59.377Z,7.51
2023-04-18T03:47:59.436Z,7.47
2023-04-18T03:48:59.374Z,7.45
2023-04-18T03:49:59.395Z,7.42
2023-04-18T03:50:59.345Z,7.37
2023-04-18T03:51:59.345Z,7.36
2023-04-18T03:52:59.302Z,7.33
2023-04-18T03:53:59.300Z,7.29
2023-04-18T03:54:59.269Z,7.27
2023-04-18T03:55:59.262Z,7.26
2023-04-18T03:56:59.256Z,7.23
2023-04-18T03:57:59.296Z,7.21
2023-04-18T03:58:59.245Z,7.19
2023-04-18T03:59:59.211Z,7.19
2023-04-18T04:00:59.181Z,7.18
2023-04-18T04:01:59.331Z,7.18
2023-04-18T04:02:59.278Z,7.18
2023-04-18T04:03:59.282Z,7.21
2023-04-18T04:04:59.208Z,7.18
2023-04-18T04:05:59.162Z,7.21
2023-04-18T04:06:59.112Z,7.19
2023-04-18T04:07:59.161Z,7.23
2023-04-18T04:08:59.125Z,7.24
2023-04-18T04:09:59.083Z,7.24
2023-04-18T04:10:59.057Z,7.23
2023-04-18T04:11:59.083Z,7.19
2023-04-18T04:12:59.064Z,7.21
2023-04-18T04:13:59.048Z,7.18
2023-04-18T04:14:59.022Z,7.19
2023-04-18T04:15:59.020Z,7.19
2023-04-18T04:16:58.994Z,7.24
2023-04-18T04:17:59.089Z,7.24
2023-04-18T04:18:58.962Z,7.27
2023-04-18T04:19:58.960Z,7.27
2023-04-18T04:20:58.940Z,7.26
2023-04-18T04:21:58.939Z,7.24
2023-04-18T04:22:58.977Z,7.24
2023-04-18T04:23:58.938Z,7.23
2023-04-18T04:24:58.897Z,7.23
2023-04-18T04:25:58.908Z,7.23
2023-04-18T04:26:58.900Z,7.24
2023-04-18T04:27:58.906Z,7.24
2023-04-18T04:28:58.816Z,7.26
2023-04-18T04:29:58.819Z,7.27
2023-04-18T04:30:58.797Z,7.27
2023-04-18T04:31:58.839Z,7.24
2023-04-18T04:32:58.838Z,7.24
2023-04-18T04:33:58.796Z,7.26
2023-04-18T04:34:58.785Z,7.24
2023-04-18T04:35:58.792Z,7.24
2023-04-18T04:36:58.739Z,7.24
2023-04-18T04:37:58.716Z,7.24
2023-04-18T04:38:58.735Z,7.24
2023-04-18T04:39:58.707Z,7.23
2023-04-18T04:40:58.690Z,7.23
2023-04-18T04:41:58.680Z,7.23
2023-04-18T04:42:58.666Z,7.19
2023-04-18T04:43:58.644Z,7.19
2023-04-18T04:44:58.626Z,7.14
2023-04-18T04:45:58.665Z,7.12
2023-04-18T04:46:58.578Z,7.12
2023-04-18T04:47:58.618Z,7.11
2023-04-18T04:48:58.596Z,7.12
2023-04-18T04:49:58.554Z,7.12
2023-04-18T04:50:58.554Z,7.14
2023-04-18T04:52:00.717Z,7.16
2023-04-18T04:52:58.532Z,7.16
2023-04-18T04:53:58.515Z,7.18
2023-04-18T04:54:58.475Z,7.23
2023-04-18T04:55:58.510Z,7.24
2023-04-18T04:56:58.448Z,7.30
2023-04-18T04:57:58.457Z,7.32
2023-04-18T04:58:58.469Z,7.37
2023-04-18T04:59:58.420Z,7.39
2023-04-18T05:00:58.440Z,7.42
2023-04-18T05:01:58.501Z,7.47
2023-04-18T05:02:58.550Z,7.50
2023-04-18T05:03:58.498Z,7.54
2023-04-18T05:04:58.361Z,7.55
2023-04-18T05:05:58.391Z,7.54
2023-04-18T05:06:58.319Z,7.57
2023-04-18T05:07:58.335Z,7.62
2023-04-18T05:08:58.322Z,7.66
2023-04-18T05:09:58.321Z,7.69
2023-04-18T05:10:58.302Z,7.70
2023-04-18T05:11:58.301Z,7.73
2023-04-18T05:12:58.236Z,7.71
2023-04-18T05:13:58.276Z,7.73
2023-04-18T05:14:58.228Z,7.77
2023-04-18T05:15:58.205Z,7.79
2023-04-18T05:16:58.261Z,7.82
2023-04-18T05:17:58.262Z,7.85
2023-04-18T05:18:58.225Z,7.85
2023-04-18T05:19:58.177Z,7.89
2023-04-18T05:20:58.174Z,7.95
2023-04-18T05:21:58.136Z,7.95
2023-04-18T05:22:58.123Z,7.96
2023-04-18T05:23:58.141Z,8.02
2023-04-18T05:24:58.141Z,8.03
2023-04-18T05:25:58.069Z,8.07
2023-04-18T05:26:58.099Z,8.04
2023-04-18T05:27:58.045Z,8.07
2023-04-18T05:28:58.120Z,8.10
2023-04-18T05:29:58.045Z,8.13
2023-04-18T05:30:58.057Z,8.18
2023-04-18T05:31:58.013Z,8.18
2023-04-18T05:32:58.029Z,8.21
2023-04-18T05:33:57.976Z,8.24
2023-04-18T05:34:57.998Z,8.24
2023-04-18T05:35:57.994Z,8.24
2023-04-18T05:36:57.978Z,8.25
2023-04-18T05:37:57.937Z,8.25
2023-04-18T05:38:57.998Z,8.24
2023-04-18T05:39:59.922Z,8.24
2023-04-18T05:40:57.957Z,8.22
2023-04-18T05:41:57.930Z,8.25
2023-04-18T05:42:57.949Z,8.25
2023-04-18T05:44:05.284Z,8.20
2023-04-18T05:44:58.858Z,8.20
2023-04-18T05:45:58.060Z,8.20
2023-04-18T05:46:57.843Z,8.21
2023-04-18T05:47:57.813Z,8.24
2023-04-18T05:48:57.884Z,8.28
2023-04-18T05:49:57.966Z,8.31
2023-04-18T05:50:57.830Z,8.31
2023-04-18T05:51:57.805Z,8.31
2023-04-18T05:52:57.739Z,8.36
2023-04-18T05:53:57.725Z,8.39
2023-04-18T05:54:57.739Z,8.42
2023-04-18T05:55:57.730Z,8.45
2023-04-18T05:56:57.678Z,8.46
2023-04-18T05:57:57.673Z,8.52
2023-04-18T05:58:57.673Z,8.52
2023-04-18T05:59:57.668Z,8.55
2023-04-18T06:00:57.664Z,8.61
2023-04-18T06:01:57.707Z,8.65
2023-04-18T06:02:57.786Z,8.68
2023-04-18T06:03:57.723Z,8.67
2023-04-18T06:04:57.839Z,8.70
2023-04-18T06:05:57.814Z,8.71
2023-04-18T06:06:57.591Z,8.75
2023-04-18T06:07:57.538Z,8.76
2023-04-18T06:08:57.536Z,8.73
2023-04-18T06:09:57.536Z,8.73
2023-04-18T06:10:57.529Z,8.73
2023-04-18T06:11:57.500Z,8.76
2023-04-18T06:12:57.508Z,8.80
2023-04-18T06:13:57.447Z,8.83
2023-04-18T06:14:57.516Z,8.89
2023-04-18T06:15:57.457Z,8.93
2023-04-18T06:16:57.470Z,8.96
2023-04-18T06:17:57.481Z,8.98
2023-04-18T06:18:58.360Z,9.03
2023-04-18T06:19:57.431Z,9.04
2023-04-18T06:20:57.400Z,9.04
2023-04-18T06:21:57.368Z,9.08
2023-04-18T06:22:57.369Z,9.12
2023-04-18T06:23:57.340Z,9.15
2023-04-18T06:24:57.353Z,9.17
2023-04-18T06:25:57.305Z,9.19
2023-04-18T06:26:57.328Z,9.22
2023-04-18T06:27:57.256Z,9.26
2023-04-18T06:28:57.277Z,9.27
2023-04-18T06:29:57.317Z,9.31
2023-04-18T06:30:57.325Z,9.35
2023-04-18T06:31:57.316Z,9.38
2023-04-18T06:32:57.272Z,9.42
2023-04-18T06:33:57.218Z,9.45
2023-04-18T06:34:57.205Z,9.44
2023-04-18T06:35:57.184Z,9.48
2023-04-18T06:36:57.163Z,9.49
2023-04-18T06:37:57.166Z,9.49
2023-04-18T06:38:57.160Z,9.52
2023-04-18T06:39:57.169Z,9.52
2023-04-18T06:40:57.145Z,9.53
2023-04-18T06:41:57.105Z,9.53
2023-04-18T06:42:57.129Z,9.52
2023-04-18T06:44:02.900Z,9.55
2023-04-18T06:44:58.093Z,9.58
2023-04-18T06:45:57.094Z,9.58
2023-04-18T06:46:57.067Z,9.59
2023-04-18T06:47:57.076Z,9.59
2023-04-18T06:48:57.055Z,9.62
2023-04-18T06:49:57.036Z,9.67
2023-04-18T06:50:57.036Z,9.71
2023-04-18T06:51:56.981Z,9.73
2023-04-18T06:52:56.960Z,9.75
2023-04-18T06:53:56.934Z,9.81
2023-04-18T06:54:56.982Z,9.86
2023-04-18T06:55:56.920Z,9.91
2023-04-18T06:56:56.909Z,9.96
2023-04-18T06:57:56.896Z,10.01
2023-04-18T06:58:56.868Z,10.06
2023-04-18T06:59:56.847Z,10.11
2023-04-18T07:00:56.920Z,10.16
2023-04-18T07:01:56.879Z,10.20
2023-04-18T07:02:57.015Z,10.20
2023-04-18T07:03:56.918Z,10.24
2023-04-18T07:04:56.864Z,10.25
2023-04-18T07:05:56.829Z,10.26
2023-04-18T07:06:56.771Z,10.28
2023-04-18T07:07:56.786Z,10.28
2023-04-18T07:08:56.848Z,10.31
2023-04-18T07:09:56.717Z,10.36
2023-04-18T07:10:56.702Z,10.42
2023-04-18T07:11:56.732Z,10.44
2023-04-18T07:12:56.696Z,10.46
2023-04-18T07:13:56.659Z,10.49
2023-04-18T07:14:56.677Z,10.54
2023-04-18T07:15:56.656Z,10.58
2023-04-18T07:16:56.703Z,10.62
2023-04-18T07:17:56.685Z,10.66
2023-04-18T07:18:56.629Z,10.70
2023-04-18T07:19:56.600Z,10.72
2023-04-18T07:20:56.581Z,10.80
2023-04-18T07:21:56.575Z,10.86
2023-04-18T07:22:56.581Z,10.91
2023-04-18T07:23:56.554Z,10.93
2023-04-18T07:24:56.567Z,10.98
2023-04-18T07:25:56.534Z,11.05
2023-04-18T07:26:56.493Z,11.09
2023-04-18T07:27:56.508Z,11.13
2023-04-18T07:28:56.478Z,11.17
2023-04-18T07:29:56.449Z,11.21
2023-04-18T07:30:56.490Z,11.24
2023-04-18T07:31:56.425Z,11.23
2023-04-18T07:32:56.477Z,11.24
2023-04-18T07:33:56.395Z,11.27
2023-04-18T07:34:56.440Z,11.27
2023-04-18T07:35:56.404Z,11.28
2023-04-18T07:36:56.380Z,11.28
2023-04-18T07:37:56.421Z,11.23
2023-04-18T07:38:56.378Z,11.24
2023-04-18T07:39:56.341Z,11.24
2023-04-18T07:40:56.442Z,11.24
2023-04-18T07:41:56.289Z,11.27
2023-04-18T07:42:56.300Z,11.28
2023-04-18T07:43:56.270Z,11.30
2023-04-18T07:44:56.304Z,11.27
2023-04-18T07:45:56.285Z,11.27
2023-04-18T07:46:56.273Z,11.27
2023-04-18T07:47:56.269Z,11.17
2023-04-18T07:48:56.221Z,11.12
2023-04-18T07:49:56.226Z,11.08
2023-04-18T07:50:56.222Z,11.02
2023-04-18T07:51:56.254Z,10.98
2023-04-18T07:52:56.904Z,10.95
2023-04-18T07:53:56.161Z,10.93
2023-04-18T07:54:56.144Z,10.90
2023-04-18T07:55:56.155Z,10.93
2023-04-18T07:56:56.146Z,10.93
2023-04-18T07:57:56.088Z,10.91
2023-04-18T07:58:56.131Z,10.90
2023-04-18T07:59:56.107Z,10.87
2023-04-18T08:00:56.075Z,10.84
2023-04-18T08:01:56.103Z,10.84
2023-04-18T08:02:56.242Z,10.86
2023-04-18T08:03:56.230Z,10.87
2023-04-18T08:04:56.454Z,10.84
2023-04-18T08:05:56.058Z,10.84
2023-04-18T08:06:55.996Z,10.86
2023-04-18T08:07:55.982Z,10.88
2023-04-18T08:08:55.963Z,10.90
2023-04-18T08:09:55.954Z,10.91
2023-04-18T08:10:55.986Z,10.95
2023-04-18T08:11:55.929Z,11.01
2023-04-18T08:12:55.911Z,11.02
2023-04-18T08:13:55.891Z,11.08
2023-04-18T08:14:55.904Z,11.16
2023-04-18T08:15:55.998Z,11.19
2023-04-18T08:16:55.873Z,11.17
2023-04-18T08:17:55.884Z,11.20
2023-04-18T08:18:55.854Z,11.23
2023-04-18T08:19:55.836Z,11.24
2023-04-18T08:20:55.807Z,11.23
2023-04-18T08:21:55.799Z,11.30
2023-04-18T08:23:55.745Z,11.42
2023-04-18T08:25:04.512Z,11.49
2023-04-18T08:25:56.809Z,11.54
2023-04-18T08:26:55.734Z,11.60
2023-04-18T08:27:55.714Z,11.60
2023-04-18T08:28:55.716Z,11.63
2023-04-18T08:29:55.713Z,11.66
2023-04-18T08:30:55.704Z,11.63
2023-04-18T08:31:55.760Z,11.62
2023-04-18T08:32:55.705Z,11.63
2023-04-18T08:33:55.627Z,11.60
2023-04-18T08:34:55.625Z,11.60
2023-04-18T08:35:55.625Z,11.54
2023-04-18T08:36:58.475Z,11.48
2023-04-18T08:37:55.593Z,11.48
2023-04-18T08:38:55.560Z,11.44
2023-04-18T08:39:55.570Z,11.44
2023-04-18T08:40:55.576Z,11.42
2023-04-18T08:41:55.538Z,11.39
2023-04-18T08:42:55.540Z,11.42
2023-04-18T08:43:57.064Z,11.45
2023-04-18T08:44:55.508Z,11.48
2023-04-18T08:45:55.563Z,11.46
2023-04-18T08:46:55.469Z,11.51
2023-04-18T08:47:55.500Z,11.57
2023-04-18T08:48:55.453Z,11.56
2023-04-18T08:49:55.440Z,11.56
2023-04-18T08:50:55.420Z,11.59
2023-04-18T08:51:55.374Z,11.53
2023-04-18T08:52:55.401Z,11.51
2023-04-18T08:53:55.396Z,11.53
2023-04-18T08:54:55.380Z,11.54
2023-04-18T08:55:55.419Z,11.56
2023-04-18T08:56:56.128Z,11.59
2023-04-18T08:57:55.313Z,11.59
2023-04-18T08:58:55.321Z,11.57
2023-04-18T08:59:55.443Z,11.62
2023-04-18T09:00:55.543Z,11.67
2023-04-18T09:01:55.268Z,11.78
2023-04-18T09:02:55.353Z,11.82
2023-04-18T09:03:55.353Z,11.85
2023-04-18T09:04:55.251Z,11.90
2023-04-18T09:05:55.274Z,11.94
2023-04-18T09:06:55.230Z,11.85
2023-04-18T09:07:55.205Z,11.79
2023-04-18T09:08:55.178Z,11.75
2023-04-18T09:09:55.153Z,11.72
2023-04-18T09:10:55.164Z,11.70
2023-04-18T09:11:55.152Z,11.67
2023-04-18T09:12:55.150Z,11.70
2023-04-18T09:13:55.119Z,11.72
2023-04-18T09:14:55.086Z,11.72
2023-04-18T09:15:55.123Z,11.67
2023-04-18T09:16:55.133Z,11.69
2023-04-18T09:17:55.101Z,11.69
2023-04-18T09:18:55.064Z,11.74
2023-04-18T09:19:55.075Z,11.81
2023-04-18T09:20:55.042Z,11.85
2023-04-18T09:21:55.018Z,11.90
2023-04-18T09:22:55.033Z,11.96
2023-04-18T09:23:54.972Z,11.98
2023-04-18T09:24:55.001Z,11.93
2023-04-18T09:25:54.938Z,11.88
2023-04-18T09:26:54.943Z,11.87
2023-04-18T09:27:54.936Z,11.85
2023-04-18T09:28:54.926Z,11.84
2023-04-18T09:29:56.655Z,11.81
2023-04-18T09:30:54.949Z,11.74
2023-04-18T09:31:54.892Z,11.75
2023-04-18T09:32:54.867Z,11.75
2023-04-18T09:33:54.850Z,11.75
2023-04-18T09:34:54.842Z,11.75
2023-04-18T09:35:54.838Z,11.74
2023-04-18T09:36:54.836Z,11.78
2023-04-18T09:37:54.828Z,11.84
2023-04-18T09:38:56.888Z,11.90
2023-04-18T09:39:54.800Z,11.96
2023-04-18T09:40:54.759Z,11.96
2023-04-18T09:41:54.761Z,11.97
2023-04-18T09:42:54.778Z,12.01
2023-04-18T09:43:54.713Z,12.04
2023-04-18T09:44:56.828Z,12.15
2023-04-18T09:45:54.723Z,12.19
2023-04-18T09:46:54.672Z,12.21
2023-04-18T09:47:54.754Z,12.22
2023-04-18T09:48:54.649Z,12.21
2023-04-18T09:49:54.643Z,12.25
2023-04-18T09:50:55.756Z,12.30
2023-04-18T09:51:54.626Z,12.30
2023-04-18T09:52:54.628Z,12.34
2023-04-18T09:53:54.610Z,12.36
2023-04-18T09:54:54.587Z,12.37
2023-04-18T09:55:57.494Z,12.36
2023-04-18T09:56:54.533Z,12.34
2023-04-18T09:57:54.556Z,12.37
2023-04-18T09:58:54.652Z,12.40
2023-04-18T09:59:54.504Z,12.48
2023-04-18T10:00:54.540Z,12.44
2023-04-18T10:01:54.655Z,12.48
2023-04-18T10:02:54.578Z,12.54
2023-04-18T10:03:54.602Z,12.58
2023-04-18T10:04:54.628Z,12.63
2023-04-18T10:05:56.513Z,12.70
2023-04-18T10:06:54.447Z,12.74
2023-04-18T10:07:54.388Z,12.80
2023-04-18T10:08:54.406Z,12.84
2023-04-18T10:09:54.368Z,12.84
2023-04-18T10:10:54.358Z,12.81
2023-04-18T10:11:54.348Z,12.79
2023-04-18T10:12:54.323Z,12.73
2023-04-18T10:13:54.307Z,12.69
2023-04-18T10:14:54.361Z,12.70
2023-04-18T10:15:54.362Z,12.70
2023-04-18T10:16:55.276Z,12.70
2023-04-18T10:18:03.412Z,12.73
2023-04-18T10:18:55.249Z,12.73
2023-04-18T10:19:54.235Z,12.74
2023-04-18T10:20:54.210Z,12.73
2023-04-18T10:21:54.201Z,12.70
2023-04-18T10:22:54.218Z,12.71
2023-04-18T10:23:54.193Z,12.66
2023-04-18T10:24:54.264Z,12.67
2023-04-18T10:25:54.293Z,12.70
2023-04-18T10:26:54.119Z,12.76
2023-04-18T10:27:54.193Z,12.85
2023-04-18T10:28:54.136Z,12.94
2023-04-18T10:29:54.157Z,12.96
2023-04-18T10:30:54.122Z,13.01
2023-04-18T10:31:54.122Z,13.07
2023-04-18T10:32:54.068Z,13.09
2023-04-18T10:34:03.913Z,13.14
2023-04-18T10:34:55.101Z,13.22
2023-04-18T10:35:54.036Z,13.25
2023-04-18T10:36:54.027Z,13.29
2023-04-18T10:37:54.005Z,13.31
2023-04-18T10:38:53.996Z,13.32
2023-04-18T10:39:53.999Z,13.29
2023-04-18T10:40:54.003Z,13.24
2023-04-18T10:41:53.954Z,13.14
2023-04-18T10:42:53.944Z,13.10
2023-04-18T10:43:53.967Z,13.07
2023-04-18T10:44:53.926Z,13.03
2023-04-18T10:45:53.948Z,13.03
2023-04-18T10:46:53.930Z,12.99
2023-04-18T10:47:53.902Z,12.98
2023-04-18T10:48:53.879Z,12.98
2023-04-18T10:49:53.878Z,12.95
2023-04-18T10:50:53.848Z,12.95
2023-04-18T10:51:53.936Z,12.98
2023-04-18T10:52:53.813Z,12.96
2023-04-18T10:53:53.808Z,12.98
2023-04-18T10:54:53.817Z,12.94
2023-04-18T10:55:53.882Z,12.98
2023-04-18T10:56:53.785Z,13.03
2023-04-18T10:57:53.891Z,13.07
2023-04-18T10:58:54.014Z,13.10
2023-04-18T10:59:53.713Z,13.14
2023-04-18T11:00:53.709Z,13.16
2023-04-18T11:01:53.721Z,13.19
2023-04-18T11:02:53.873Z,13.22
2023-04-18T11:03:53.768Z,13.27
2023-04-18T11:04:53.647Z,13.31
2023-04-18T11:05:53.635Z,13.31
2023-04-18T11:06:53.640Z,13.35
2023-04-18T11:07:53.648Z,13.38
2023-04-18T11:08:53.623Z,13.39
2023-04-18T11:09:53.611Z,13.39
2023-04-18T11:10:53.831Z,13.36
2023-04-18T11:11:53.592Z,13.39
2023-04-18T11:12:53.551Z,13.43
2023-04-18T11:13:53.523Z,13.43
2023-04-18T11:14:53.539Z,13.39
2023-04-18T11:15:53.541Z,13.39
2023-04-18T11:16:53.634Z,13.43
2023-04-18T11:17:53.540Z,13.47
2023-04-18T11:18:53.459Z,13.50
2023-04-18T11:19:53.522Z,13.54
2023-04-18T11:20:53.530Z,13.65
2023-04-18T11:21:53.444Z,13.73
2023-04-18T11:22:53.405Z,13.76
2023-04-18T11:23:53.424Z,13.84
2023-04-18T11:24:53.424Z,13.79
2023-04-18T11:25:53.408Z,13.80
2023-04-18T11:26:53.357Z,13.84
2023-04-18T11:27:53.376Z,13.84
2023-04-18T11:28:53.340Z,13.83
2023-04-18T11:29:53.347Z,13.79
2023-04-18T11:30:53.337Z,13.75
2023-04-18T11:31:56.678Z,13.68
2023-04-18T11:32:54.406Z,13.66
2023-04-18T11:33:53.354Z,13.69
2023-04-18T11:34:54.020Z,13.68
2023-04-18T11:35:54.260Z,13.63
2023-04-18T11:36:53.259Z,13.59
2023-04-18T11:37:53.270Z,13.54
2023-04-18T11:38:53.247Z,13.39
2023-04-18T11:39:53.226Z,13.36
2023-04-18T11:40:53.223Z,13.32
2023-04-18T11:41:53.169Z,13.35
2023-04-18T11:42:53.170Z,13.41
2023-04-18T11:43:53.160Z,13.47
2023-04-18T11:44:53.167Z,13.47
2023-04-18T11:45:53.274Z,13.48
2023-04-18T11:46:53.134Z,13.61
2023-04-18T11:47:53.146Z,13.71
2023-04-18T11:48:53.102Z,13.80
2023-04-18T11:49:54.241Z,13.86
2023-04-18T11:50:53.071Z,13.91
2023-04-18T11:51:53.033Z,14.01
2023-04-18T11:52:53.056Z,14.09
2023-04-18T11:53:53.082Z,14.19
2023-04-18T11:54:53.015Z,14.27
2023-04-18T11:55:53.018Z,14.31
2023-04-18T11:56:52.950Z,14.35
2023-04-18T11:57:52.976Z,14.39
2023-04-18T11:58:52.933Z,14.44
2023-04-18T11:59:52.959Z,14.29
2023-04-18T12:00:52.981Z,14.08
2023-04-18T12:02:12.551Z,14.04
2023-04-18T12:02:56.671Z,14.05
2023-04-18T12:03:53.118Z,13.98
2023-04-18T12:04:53.925Z,13.86
2023-04-18T12:05:53.040Z,13.86
2023-04-18T12:06:52.833Z,13.81
2023-04-18T12:07:52.854Z,13.72
2023-04-18T12:08:54.064Z,13.72
2023-04-18T12:09:52.801Z,13.69
2023-04-18T12:10:52.860Z,13.72
2023-04-18T12:11:52.810Z,13.80
2023-04-18T12:12:52.748Z,13.87
2023-04-18T12:13:52.747Z,13.90
2023-04-18T12:14:52.739Z,13.98
2023-04-18T12:15:52.790Z,14.04
2023-04-18T12:16:52.719Z,14.13
2023-04-18T12:17:52.828Z,14.26
2023-04-18T12:18:52.655Z,14.30
2023-04-18T12:19:52.698Z,14.38
2023-04-18T12:20:52.698Z,14.45
2023-04-18T12:21:52.677Z,14.53
2023-04-18T12:22:52.619Z,14.57
2023-04-18T12:23:52.665Z,14.64
2023-04-18T12:24:52.581Z,14.69
2023-04-18T12:25:52.618Z,14.74
2023-04-18T12:26:52.596Z,14.80
2023-04-18T12:27:52.607Z,14.90
2023-04-18T12:28:52.549Z,14.94
2023-04-18T12:29:52.542Z,15.00
2023-04-18T12:30:52.545Z,14.98
2023-04-18T12:31:52.868Z,14.97
2023-04-18T12:32:52.588Z,15.00
2023-04-18T12:33:52.511Z,14.90
2023-04-18T12:34:52.473Z,14.71
2023-04-18T12:35:52.492Z,14.60
2023-04-18T12:36:52.456Z,14.49
2023-04-18T12:37:52.446Z,14.49
2023-04-18T12:38:52.446Z,14.46
2023-04-18T12:39:52.485Z,14.38
2023-04-18T12:40:52.439Z,14.23
2023-04-18T12:41:52.384Z,14.11
2023-04-18T12:42:52.360Z,14.01
2023-04-18T12:43:52.360Z,13.96
2023-04-18T12:44:52.323Z,13.99
2023-04-18T12:45:52.341Z,13.98
2023-04-18T12:46:52.382Z,13.99
2023-04-18T12:47:52.417Z,14.06
2023-04-18T12:48:52.293Z,14.16
2023-04-18T12:49:52.295Z,14.26
2023-04-18T12:50:52.281Z,14.38
2023-04-18T12:51:52.264Z,14.46
2023-04-18T12:52:52.239Z,14.53
2023-04-18T12:53:52.240Z,14.57
2023-04-18T12:54:52.215Z,14.61
2023-04-18T12:55:52.203Z,14.59
2023-04-18T12:56:52.186Z,14.60
2023-04-18T12:57:52.196Z,14.66
2023-04-18T12:58:52.168Z,14.48
2023-04-18T12:59:52.154Z,14.44
2023-04-18T13:00:52.164Z,14.42
2023-04-18T13:01:52.142Z,14.45
2023-04-18T13:02:52.419Z,14.48
2023-04-18T13:04:04.047Z,14.48
2023-04-18T13:04:53.130Z,14.52
2023-04-18T13:05:52.105Z,14.59
2023-04-18T13:06:52.047Z,14.63